createdAt,value
2023-03-06T00:02:54.366Z,16
2023-03-06T00:07:53.546Z,17.9
2023-03-06T00:12:52.700Z,18.6
2023-03-06T00:17:51.840Z,17.5
2023-03-06T00:22:50.952Z,19.8
2023-03-06T00:27:50.090Z,19.1
2023-03-06T00:32:49.212Z,19.2
2023-03-06T00:37:48.326Z,18.1
2023-03-06T00:42:47.488Z,15.3
2023-03-06T00:47:46.598Z,17.2
2023-03-06T00:52:45.780Z,16.4
2023-03-06T00:57:44.863Z,16.5
2023-03-06T01:02:43.964Z,16.6
2023-03-06T01:07:43.075Z,16.6
2023-03-06T01:12:42.228Z,16.1
2023-03-06T01:17:41.389Z,18.1
2023-03-06T01:22:40.505Z,20.4
2023-03-06T01:27:39.646Z,18
2023-03-06T01:32:38.772Z,16.7
2023-03-06T01:37:37.856Z,17.3
2023-03-06T01:42:36.973Z,18.2
2023-03-06T01:47:36.092Z,18.4
2023-03-06T01:52:35.248Z,16.8
2023-03-06T01:57:34.349Z,16.1
2023-03-06T02:02:33.488Z,14.6
2023-03-06T02:07:32.542Z,13.8
2023-03-06T02:12:31.657Z,13.9
2023-03-06T02:17:30.781Z,12.2
2023-03-06T02:22:29.864Z,13.1
2023-03-06T02:27:29.004Z,12
2023-03-06T02:32:28.161Z,14.4
2023-03-06T02:37:27.202Z,11.4
2023-03-06T02:42:26.271Z,8.9
2023-03-06T02:47:25.364Z,9.4
2023-03-06T02:52:24.528Z,10.4
2023-03-06T02:57:23.609Z,10
2023-03-06T03:02:22.717Z,8.2
2023-03-06T03:07:21.870Z,10
2023-03-06T03:12:21.010Z,9.8
2023-03-06T03:17:20.076Z,12.2
2023-03-06T03:22:19.216Z,9.4
2023-03-06T03:27:18.329Z,10.4
2023-03-06T03:32:17.502Z,10.3
2023-03-06T03:37:16.522Z,9.9
2023-03-06T03:42:15.552Z,10.1
2023-03-06T03:47:14.644Z,8.6
2023-03-06T03:52:13.702Z,10.1
2023-03-06T03:57:12.793Z,7.6
2023-03-06T04:02:11.872Z,6.5
2023-03-06T04:07:10.883Z,6
2023-03-06T04:12:09.985Z,5
2023-03-06T04:17:08.999Z,8.5
2023-03-06T04:22:08.047Z,6.9
2023-03-06T04:27:07.110Z,6
2023-03-06T04:32:06.155Z,6.7
2023-03-06T04:37:05.127Z,6.6
2023-03-06T04:42:04.179Z,7.3
2023-03-06T04:47:03.213Z,6.1
2023-03-06T04:52:02.180Z,5.3
2023-03-06T04:57:01.217Z,5.2
2023-03-06T05:02:00.239Z,4.9
2023-03-06T05:06:59.206Z,5.6
2023-03-06T05:11:58.235Z,6.6
2023-03-06T05:16:57.283Z,6.7
2023-03-06T05:21:56.229Z,9.5
2023-03-06T05:26:55.234Z,9.9
2023-03-06T05:31:54.360Z,9
2023-03-06T05:36:53.302Z,9.1
2023-03-06T05:41:52.327Z,12
2023-03-06T05:51:50.340Z,6
2023-03-06T05:56:49.373Z,10.7
2023-03-06T06:01:48.459Z,6.7
2023-03-06T06:06:47.435Z,4.6
2023-03-06T06:11:46.503Z,6.3
2023-03-06T06:16:45.570Z,6.1
2023-03-06T06:21:44.636Z,8.7
2023-03-06T06:26:43.717Z,3.9
2023-03-06T06:31:42.793Z,4.8
2023-03-06T06:36:41.869Z,5.3
2023-03-06T06:41:53.477Z,4.7
2023-03-06T06:47:20.685Z,5.1
2023-03-06T06:51:39.082Z,6.2
2023-03-06T06:56:38.144Z,7.7
2023-03-06T07:01:37.239Z,6.1
2023-03-06T07:06:36.288Z,6.3
2023-03-06T07:11:35.428Z,8.3
2023-03-06T07:16:34.459Z,5.6
2023-03-06T07:21:33.593Z,6.7
2023-03-06T07:26:34.650Z,6.2
2023-03-06T07:31:31.793Z,5.7
2023-03-06T07:36:30.926Z,6.5
2023-03-06T07:41:30.061Z,6.4
2023-03-06T07:46:29.249Z,7.7
2023-03-06T07:51:28.407Z,7.6
2023-03-06T07:56:27.508Z,6.2
2023-03-06T08:01:26.691Z,5.1
2023-03-06T08:06:25.897Z,5.5
2023-03-06T08:11:25.008Z,6.4
2023-03-06T08:16:24.295Z,7.6
2023-03-06T08:21:23.359Z,8.1
2023-03-06T08:26:22.570Z,6.2
2023-03-06T08:31:21.712Z,5.6
2023-03-06T08:36:20.942Z,6.1
2023-03-06T08:41:20.439Z,5.8
2023-03-06T08:46:19.235Z,6.4
2023-03-06T08:51:18.460Z,5.6
2023-03-06T08:56:17.574Z,5.7
2023-03-06T09:01:16.880Z,7.7
2023-03-06T09:06:15.948Z,5.3
2023-03-06T09:11:15.127Z,6.6
2023-03-06T09:16:14.365Z,7.3
2023-03-06T09:21:14.533Z,6.6
2023-03-06T09:26:12.693Z,5.9
2023-03-06T09:31:11.996Z,5.5
2023-03-06T09:36:11.098Z,6.9
2023-03-06T09:41:10.382Z,5.9
2023-03-06T09:46:09.608Z,6.5
2023-03-06T09:51:08.778Z,5.3
2023-03-06T09:56:08.021Z,5.3
2023-03-06T10:01:07.272Z,6.3
2023-03-06T10:06:06.499Z,5.2
2023-03-06T10:11:05.766Z,4.7
2023-03-06T10:16:05.089Z,4.4
2023-03-06T10:21:18.349Z,4.6
2023-03-06T10:26:03.589Z,4.3
2023-03-06T10:31:02.833Z,4.7
2023-03-06T10:36:02.031Z,5.1
2023-03-06T10:41:01.363Z,4.1
2023-03-06T10:46:00.598Z,4.1
2023-03-06T10:51:02.770Z,4.7
2023-03-06T10:55:59.195Z,4.4
2023-03-06T11:00:58.360Z,4
2023-03-06T11:05:57.695Z,5.8
2023-03-06T11:10:56.973Z,3.9
2023-03-06T11:15:56.288Z,5.4
2023-03-06T11:20:55.492Z,5.1
2023-03-06T11:25:54.822Z,4.7
2023-03-06T11:30:54.135Z,4.8
2023-03-06T11:35:53.593Z,5
2023-03-06T11:40:52.758Z,5.2
2023-03-06T11:45:51.980Z,5
2023-03-06T11:50:51.270Z,6.5
2023-03-06T11:55:50.572Z,5.7
2023-03-06T12:00:49.867Z,6.2
2023-03-06T12:05:49.191Z,5.6
2023-03-06T12:10:51.740Z,5.2
2023-03-06T12:15:47.814Z,6.3
2023-03-06T12:20:47.131Z,6.1
2023-03-06T12:25:46.475Z,6
2023-03-06T12:30:45.806Z,7.9
2023-03-06T12:35:45.139Z,6.3
2023-03-06T12:40:44.472Z,6.6
2023-03-06T12:45:43.888Z,5.7
2023-03-06T12:50:43.156Z,17.9
2023-03-06T12:55:42.478Z,8.3
2023-03-06T13:00:41.852Z,8.5
2023-03-06T13:05:41.138Z,6
2023-03-06T13:10:40.524Z,6.7
2023-03-06T13:15:39.834Z,6.6
2023-03-06T13:20:39.152Z,9.8
2023-03-06T13:25:40.025Z,7.4
2023-03-06T13:30:37.893Z,6.9
2023-03-06T13:35:37.216Z,5.8
2023-03-06T13:40:36.551Z,6.2
2023-03-06T13:45:35.897Z,7.2
2023-03-06T13:50:35.221Z,6.2
2023-03-06T13:55:34.567Z,32.2
2023-03-06T14:00:34.870Z,6.4
2023-03-06T14:05:34.801Z,5.9
2023-03-06T14:10:32.535Z,6.7
2023-03-06T14:15:31.810Z,4.6
2023-03-06T14:20:31.171Z,4.4
2023-03-06T14:25:30.493Z,6.1
2023-03-06T14:30:29.803Z,6
2023-03-06T14:35:29.117Z,6.3
2023-03-06T14:40:28.364Z,10.1
2023-03-06T14:45:27.745Z,13.8
2023-03-06T14:50:27.004Z,8.3
2023-03-06T14:55:26.394Z,9
2023-03-06T15:00:25.637Z,10.4
2023-03-06T15:05:24.982Z,15.4
2023-03-06T15:10:24.272Z,13.8
2023-03-06T15:15:23.557Z,9.7
2023-03-06T15:20:22.837Z,8.3
2023-03-06T15:25:22.178Z,6
2023-03-06T15:30:21.407Z,4.8
2023-03-06T15:35:20.730Z,5.5
2023-03-06T15:40:19.938Z,8.8
2023-03-06T15:45:19.244Z,9.2
2023-03-06T15:50:18.456Z,11.3
2023-03-06T15:55:17.684Z,13
2023-03-06T16:00:27.012Z,11
2023-03-06T16:05:17.207Z,10.2
2023-03-06T16:10:15.472Z,11.1
2023-03-06T16:15:14.701Z,17
2023-03-06T16:20:13.965Z,14.7
2023-03-06T16:25:13.166Z,13.6
2023-03-06T16:30:12.466Z,12.2
2023-03-06T16:35:11.687Z,7.9
2023-03-06T16:40:11.029Z,8.7
2023-03-06T16:45:10.248Z,18.2
2023-03-06T16:50:09.553Z,26.8
2023-03-06T16:55:08.776Z,17.7
2023-03-06T17:00:08.040Z,9.7
2023-03-06T17:05:07.292Z,13.8
2023-03-06T17:10:06.525Z,24.5
2023-03-06T17:15:05.792Z,27.6
2023-03-06T17:20:05.062Z,46.6
2023-03-06T17:25:04.296Z,28.7
2023-03-06T17:30:03.490Z,35.5
2023-03-06T17:35:02.746Z,35.7
2023-03-06T17:40:02.086Z,37.8
2023-03-06T17:45:01.261Z,35.8
2023-03-06T17:50:00.513Z,37.6
2023-03-06T17:54:59.767Z,35
2023-03-06T17:59:59.114Z,36.9
2023-03-06T18:04:58.443Z,35.2
2023-03-06T18:09:57.528Z,40.2
2023-03-06T18:14:56.832Z,50.3
2023-03-06T18:19:56.082Z,39.6
2023-03-06T18:24:56.396Z,39.8
2023-03-06T18:29:54.604Z,42.4
2023-03-06T18:34:53.853Z,44.2
2023-03-06T18:39:53.100Z,37.6
2023-03-06T18:44:52.345Z,32.6
2023-03-06T18:49:51.539Z,33.2
2023-03-06T18:54:50.799Z,40.5
2023-03-06T18:59:50.051Z,49.2
2023-03-06T19:04:49.265Z,41
2023-03-06T19:14:47.788Z,36.2
2023-03-06T19:19:46.988Z,47.8
2023-03-06T19:24:46.260Z,52.4
2023-03-06T19:29:45.400Z,42.9
2023-03-06T19:34:44.694Z,37.3
2023-03-06T19:39:43.808Z,30.5
2023-03-06T19:44:43.052Z,27.5
2023-03-06T19:49:42.274Z,20
2023-03-06T19:54:41.517Z,24.5
2023-03-06T19:59:40.799Z,20.5
2023-03-06T20:04:39.985Z,12
2023-03-06T20:09:39.199Z,14.8
2023-03-06T20:14:38.488Z,12.9
2023-03-06T20:19:37.706Z,14.8
2023-03-06T20:24:36.914Z,16
2023-03-06T20:29:36.152Z,18.5
2023-03-06T20:34:35.417Z,17.6
2023-03-06T20:39:34.672Z,17.1
2023-03-06T20:44:33.881Z,18.8
2023-03-06T20:49:33.074Z,17.2
2023-03-06T20:54:32.349Z,13.6
2023-03-06T20:59:31.599Z,10.4
2023-03-06T21:04:30.851Z,11.9
2023-03-06T21:09:30.043Z,12.3
2023-03-06T21:14:29.320Z,12.5
2023-03-06T21:19:28.506Z,10.1
2023-03-06T21:24:27.698Z,10.2
2023-03-06T21:29:26.990Z,10.9
2023-03-06T21:34:26.212Z,9.5
2023-03-06T21:39:25.390Z,17.2
2023-03-06T21:44:24.625Z,9.1
2023-03-06T21:49:23.876Z,9.2
2023-03-06T21:54:23.151Z,10.8
2023-03-06T21:59:22.380Z,8.5
2023-03-06T22:04:21.682Z,6.3
2023-03-06T22:09:20.835Z,8.2
2023-03-06T22:14:20.045Z,7.2
2023-03-06T22:19:19.251Z,7
2023-03-06T22:24:18.728Z,4
2023-03-06T22:29:17.730Z,5.3
2023-03-06T22:34:16.898Z,4.7
2023-03-06T22:39:16.083Z,4.4
2023-03-06T22:44:15.306Z,4.4
2023-03-06T22:49:14.476Z,4
2023-03-06T22:54:13.694Z,4.3
2023-03-06T22:59:12.900Z,2.6
2023-03-06T23:04:12.143Z,4.5
2023-03-06T23:09:11.246Z,5.5
2023-03-06T23:14:10.428Z,6.4
2023-03-06T23:19:09.642Z,4.5
2023-03-06T23:24:08.849Z,5.5
2023-03-06T23:29:07.998Z,4.5
2023-03-06T23:34:07.227Z,4.8
2023-03-06T23:39:06.450Z,5.6
2023-03-06T23:44:05.673Z,5.4
2023-03-06T23:49:04.877Z,4.6
2023-03-06T23:54:04.133Z,3.9
2023-03-06T23:59:03.314Z,4.9
